createdAt,value
2016-10-07T00:00:03.326Z,99.99
2016-10-07T00:01:03.345Z,99.99
2016-10-07T00:02:03.373Z,99.99
2016-10-07T00:03:03.638Z,99.99
2016-10-07T00:04:03.709Z,99.99
2016-10-07T00:05:03.684Z,99.99
2016-10-07T00:06:03.454Z,99.99
2016-10-07T00:07:03.476Z,99.99
2016-10-07T00:08:03.496Z,99.99
2016-10-07T00:10:03.536Z,99.99
2016-10-07T00:11:18.484Z,99.99
2016-10-07T00:12:03.580Z,99.99
2016-10-07T00:13:03.606Z,99.99
2016-10-07T00:14:03.629Z,99.99
2016-10-07T00:15:03.648Z,99.99
2016-10-07T00:16:03.672Z,99.99
2016-10-07T00:17:03.694Z,99.99
2016-10-07T00:19:03.734Z,99.99
2016-10-07T00:20:03.758Z,99.99
2016-10-07T00:21:03.776Z,99.99
2016-10-07T00:22:03.795Z,99.99
2016-10-07T00:23:03.818Z,99.99
2016-10-07T00:24:03.845Z,99.99
2016-10-07T00:25:03.866Z,99.99
2016-10-07T00:26:03.886Z,99.99
2016-10-07T00:27:18.827Z,99.99
2016-10-07T00:28:03.925Z,99.99
2016-10-07T00:29:03.947Z,99.99
2016-10-07T00:30:03.975Z,99.99
2016-10-07T00:31:04.003Z,99.99
2016-10-07T00:32:04.015Z,99.99
2016-10-07T00:33:04.031Z,99.99
2016-10-07T00:34:04.052Z,99.99
2016-10-07T00:35:04.074Z,99.99
2016-10-07T00:36:04.102Z,99.99
2016-10-07T00:37:04.120Z,99.99
2016-10-07T00:38:04.141Z,99.99
2016-10-07T00:40:04.183Z,99.99
2016-10-07T00:41:04.209Z,99.99
2016-10-07T00:42:04.228Z,99.99
2016-10-07T00:43:19.171Z,99.99
2016-10-07T00:44:04.270Z,99.99
2016-10-07T00:45:04.290Z,99.99
2016-10-07T00:46:04.311Z,99.99
2016-10-07T00:47:04.333Z,99.99
2016-10-07T00:48:04.355Z,99.99
2016-10-07T00:49:04.384Z,99.99
2016-10-07T00:51:04.422Z,99.99
2016-10-07T00:52:04.555Z,99.99
2016-10-07T00:53:04.463Z,99.99
2016-10-07T00:54:04.481Z,99.99
2016-10-07T00:55:04.508Z,99.99
2016-10-07T00:56:04.525Z,99.99
2016-10-07T00:57:04.553Z,99.99
2016-10-07T00:58:04.570Z,99.99
2016-10-07T00:59:19.514Z,99.99
2016-10-07T01:00:04.610Z,99.99
2016-10-07T01:01:04.638Z,99.99
2016-10-07T01:02:04.658Z,99.99
2016-10-07T01:03:04.676Z,99.99
2016-10-07T01:04:04.698Z,99.99
2016-10-07T01:05:04.715Z,99.99
2016-10-07T01:06:04.743Z,99.99
2016-10-07T01:07:04.759Z,99.99
2016-10-07T01:08:04.781Z,99.99
2016-10-07T01:09:04.806Z,99.99
2016-10-07T01:11:04.852Z,99.99
2016-10-07T01:12:04.921Z,99.99
2016-10-07T01:13:04.892Z,99.99
2016-10-07T01:14:19.835Z,99.99
2016-10-07T01:15:04.935Z,99.99
2016-10-07T01:16:04.954Z,99.99
2016-10-07T01:17:04.975Z,99.99
2016-10-07T01:18:04.995Z,99.99
2016-10-07T01:19:05.016Z,99.99
2016-10-07T01:20:05.036Z,99.99
2016-10-07T01:21:05.062Z,99.99
2016-10-07T01:22:05.081Z,99.99
2016-10-07T01:23:05.104Z,99.99
2016-10-07T01:24:05.124Z,99.99
2016-10-07T01:25:05.145Z,99.99
2016-10-07T01:26:05.165Z,99.99
2016-10-07T01:27:05.189Z,99.99
2016-10-07T01:28:05.213Z,99.99
2016-10-07T01:29:05.234Z,99.99
2016-10-07T01:30:05.252Z,99.99
2016-10-07T01:31:05.273Z,99.99
2016-10-07T01:32:05.291Z,99.99
2016-10-07T01:33:05.315Z,99.99
2016-10-07T01:34:05.333Z,99.99
2016-10-07T01:35:05.359Z,99.99
2016-10-07T01:36:05.382Z,99.99
2016-10-07T01:37:05.453Z,99.99
2016-10-07T01:38:05.424Z,99.99
2016-10-07T01:39:05.441Z,99.99
2016-10-07T01:40:05.462Z,99.99
2016-10-07T01:41:05.484Z,99.99
2016-10-07T01:42:05.508Z,99.99
2016-10-07T01:43:05.529Z,99.99
2016-10-07T01:44:05.551Z,99.99
2016-10-07T01:45:05.568Z,99.99
2016-10-07T01:46:20.512Z,99.99
2016-10-07T01:47:05.611Z,99.99
2016-10-07T01:48:05.683Z,99.99
2016-10-07T01:50:05.675Z,99.99
2016-10-07T01:51:05.714Z,99.99
2016-10-07T01:52:05.718Z,99.99
2016-10-07T01:53:05.738Z,99.99
2016-10-07T01:54:05.762Z,99.99
2016-10-07T01:56:05.806Z,99.99
2016-10-07T01:57:06.125Z,99.99
2016-10-07T01:58:05.899Z,99.99
2016-10-07T01:59:05.867Z,99.99
2016-10-07T02:01:05.912Z,99.99
2016-10-07T02:02:20.856Z,99.99
2016-10-07T02:03:05.957Z,99.99
2016-10-07T02:04:06.028Z,99.99
2016-10-07T02:05:05.995Z,99.99
2016-10-07T02:06:06.016Z,99.99
2016-10-07T02:07:06.035Z,99.99
2016-10-07T02:08:06.111Z,99.99
2016-10-07T02:09:06.132Z,99.99
2016-10-07T02:10:06.102Z,99.99
2016-10-07T02:11:06.124Z,99.99
2016-10-07T02:12:06.145Z,99.99
2016-10-07T02:13:06.165Z,99.99
2016-10-07T02:15:06.211Z,99.99
2016-10-07T02:16:06.228Z,99.99
2016-10-07T02:17:06.505Z,99.99
2016-10-07T02:18:21.197Z,99.99
2016-10-07T02:19:06.296Z,99.99
2016-10-07T02:20:06.324Z,99.99
2016-10-07T02:21:06.342Z,99.99
2016-10-07T02:22:06.364Z,99.99
2016-10-07T02:23:06.383Z,99.99
2016-10-07T02:24:06.404Z,99.99
2016-10-07T02:25:06.421Z,99.99
2016-10-07T02:26:06.449Z,99.99
2016-10-07T02:27:06.476Z,99.99
2016-10-07T02:28:06.489Z,99.99
2016-10-07T02:29:06.512Z,99.99
2016-10-07T02:31:06.551Z,99.99
2016-10-07T02:32:06.578Z,99.99
2016-10-07T02:33:06.595Z,99.99
2016-10-07T02:34:21.538Z,99.99
2016-10-07T02:35:06.641Z,99.99
2016-10-07T02:36:06.661Z,99.99
2016-10-07T02:37:06.682Z,99.99
2016-10-07T02:38:06.704Z,99.99
2016-10-07T02:39:06.727Z,99.99
2016-10-07T02:40:06.744Z,99.99
2016-10-07T02:41:06.770Z,99.99
2016-10-07T02:42:06.787Z,99.99
2016-10-07T02:43:06.809Z,99.99
2016-10-07T02:44:06.835Z,99.99
2016-10-07T02:45:06.850Z,99.99
2016-10-07T02:46:06.883Z,99.99
2016-10-07T02:47:06.897Z,99.99
2016-10-07T02:48:06.967Z,99.99
2016-10-07T02:49:21.862Z,99.99
2016-10-07T02:50:06.962Z,99.99
2016-10-07T02:51:06.980Z,99.99
2016-10-07T02:52:07.006Z,99.99
2016-10-07T02:53:07.031Z,99.99
2016-10-07T02:54:07.364Z,99.99
2016-10-07T02:55:07.324Z,99.99
2016-10-07T02:56:07.095Z,99.99
2016-10-07T02:57:07.417Z,99.99
2016-10-07T02:58:07.140Z,99.99
2016-10-07T02:59:07.155Z,99.99
2016-10-07T03:00:07.491Z,99.99
2016-10-07T03:01:07.198Z,99.99
2016-10-07T03:02:07.286Z,99.99
2016-10-07T03:04:07.271Z,99.99
2016-10-07T03:05:07.287Z,99.99
2016-10-07T03:06:07.313Z,99.99
2016-10-07T03:07:07.335Z,99.99
2016-10-07T03:08:07.348Z,99.99
2016-10-07T03:09:07.676Z,99.99
2016-10-07T03:10:07.391Z,99.99
2016-10-07T03:11:07.418Z,99.99
2016-10-07T03:12:07.441Z,99.99
2016-10-07T03:13:07.455Z,99.99
2016-10-07T03:14:07.481Z,99.99
2016-10-07T03:15:07.499Z,99.99
2016-10-07T03:16:07.523Z,99.99
2016-10-07T03:17:07.540Z,99.99
2016-10-07T03:19:07.588Z,99.99
2016-10-07T03:20:07.611Z,99.99
2016-10-07T03:21:22.554Z,99.99
2016-10-07T03:22:07.661Z,99.99
2016-10-07T03:23:07.675Z,99.99
2016-10-07T03:24:07.692Z,99.99
2016-10-07T03:25:07.719Z,99.99
2016-10-07T03:26:07.735Z,99.99
2016-10-07T03:27:07.764Z,99.99
2016-10-07T03:28:07.782Z,99.99
2016-10-07T03:29:07.810Z,99.99
2016-10-07T03:30:07.824Z,99.99
2016-10-07T03:31:07.848Z,99.99
2016-10-07T03:33:07.890Z,99.99
2016-10-07T03:34:07.909Z,99.99
2016-10-07T03:35:07.935Z,99.99
2016-10-07T03:37:22.897Z,99.99
2016-10-07T03:38:07.999Z,99.99
2016-10-07T03:39:08.019Z,99.99
2016-10-07T03:40:08.039Z,99.99
2016-10-07T03:41:08.068Z,99.99
2016-10-07T03:42:08.082Z,99.99
2016-10-07T03:43:08.104Z,99.99
2016-10-07T03:44:08.125Z,99.99
2016-10-07T03:45:08.150Z,99.99
2016-10-07T03:46:08.221Z,99.99
2016-10-07T03:47:08.195Z,99.99
2016-10-07T03:48:08.212Z,99.99
2016-10-07T03:49:08.231Z,99.99
2016-10-07T03:51:08.538Z,99.99
2016-10-07T03:52:08.302Z,99.99
2016-10-07T03:53:23.241Z,99.99
2016-10-07T03:54:08.345Z,99.99
2016-10-07T03:55:08.362Z,99.99
2016-10-07T03:56:08.388Z,99.99
2016-10-07T03:57:08.408Z,99.99
2016-10-07T03:58:08.426Z,99.99
2016-10-07T03:59:08.447Z,99.99
2016-10-07T04:00:08.469Z,99.99
2016-10-07T04:01:08.490Z,99.99
2016-10-07T04:02:08.511Z,99.99
2016-10-07T04:03:08.533Z,99.99
2016-10-07T04:04:08.559Z,99.99
2016-10-07T04:05:08.579Z,99.99
2016-10-07T04:06:08.602Z,99.99
2016-10-07T04:07:08.624Z,99.99
2016-10-07T04:08:08.646Z,99.99
2016-10-07T04:09:23.588Z,99.99
2016-10-07T04:10:08.687Z,99.99
2016-10-07T04:11:08.709Z,99.99
2016-10-07T04:12:08.729Z,99.99
2016-10-07T04:13:08.751Z,99.99
2016-10-07T04:14:08.770Z,99.99
2016-10-07T04:15:09.039Z,99.99
2016-10-07T04:16:08.812Z,99.99
2016-10-07T04:17:08.836Z,99.99
2016-10-07T04:18:08.860Z,99.99
2016-10-07T04:19:08.878Z,99.99
2016-10-07T04:21:08.920Z,99.99
2016-10-07T04:22:08.944Z,99.99
2016-10-07T04:23:08.966Z,99.99
2016-10-07T04:24:23.907Z,99.99
2016-10-07T04:25:09.009Z,99.99
2016-10-07T04:26:09.027Z,99.99
2016-10-07T04:27:09.054Z,99.99
2016-10-07T04:28:09.075Z,99.99
2016-10-07T04:29:09.090Z,99.99
2016-10-07T04:30:09.122Z,99.99
2016-10-07T04:31:09.440Z,99.99
2016-10-07T04:32:09.156Z,99.99
2016-10-07T04:33:09.180Z,99.99
2016-10-07T04:35:09.220Z,99.99
2016-10-07T04:36:09.245Z,99.99
2016-10-07T04:37:09.260Z,99.99
2016-10-07T04:38:09.289Z,99.99
2016-10-07T04:39:09.308Z,99.99
2016-10-07T04:42:09.374Z,99.99
2016-10-07T04:43:09.398Z,99.99
2016-10-07T04:44:09.421Z,99.99
2016-10-07T04:45:09.738Z,99.99
2016-10-07T04:46:09.456Z,99.99
2016-10-07T04:47:09.482Z,99.99
2016-10-07T04:48:09.500Z,99.99
2016-10-07T04:49:09.522Z,99.99
2016-10-07T04:50:09.550Z,99.99
2016-10-07T04:53:09.610Z,99.99
2016-10-07T04:54:09.631Z,99.99
2016-10-07T04:55:09.648Z,99.99
2016-10-07T04:56:24.594Z,99.99
2016-10-07T04:57:09.692Z,99.99
2016-10-07T04:58:09.714Z,99.99
2016-10-07T04:59:09.736Z,99.99
2016-10-07T05:00:09.761Z,99.99
2016-10-07T05:01:09.781Z,99.99
2016-10-07T05:02:09.801Z,99.99
2016-10-07T05:03:09.833Z,99.99
2016-10-07T05:04:09.845Z,99.99
2016-10-07T05:05:09.867Z,99.99
2016-10-07T05:06:09.889Z,99.99
2016-10-07T05:07:09.908Z,99.99
2016-10-07T05:08:09.931Z,99.99
2016-10-07T05:09:09.951Z,99.99
2016-10-07T05:10:09.975Z,99.99
2016-10-07T05:12:24.939Z,99.99
2016-10-07T05:13:10.041Z,99.99
2016-10-07T05:14:10.308Z,99.99
2016-10-07T05:15:10.079Z,99.99
2016-10-07T05:16:10.104Z,99.99
2016-10-07T05:17:10.126Z,99.99
2016-10-07T05:18:10.147Z,99.99
2016-10-07T05:19:10.167Z,99.99
2016-10-07T05:20:10.183Z,99.99
2016-10-07T05:21:10.212Z,99.99
2016-10-07T05:22:10.237Z,99.99
2016-10-07T05:23:10.254Z,99.99
2016-10-07T05:24:10.273Z,99.99
2016-10-07T05:25:10.291Z,99.99
2016-10-07T05:26:10.312Z,99.99
2016-10-07T05:27:10.584Z,99.99
2016-10-07T05:28:25.281Z,99.99
2016-10-07T05:29:10.382Z,99.99
2016-10-07T05:30:10.402Z,99.99
2016-10-07T05:31:10.419Z,99.99
2016-10-07T05:32:10.445Z,99.99
2016-10-07T05:33:10.463Z,99.99
2016-10-07T05:34:10.489Z,99.99
2016-10-07T05:35:10.508Z,99.99
2016-10-07T05:36:10.530Z,99.99
2016-10-07T05:37:10.552Z,99.99
2016-10-07T05:38:10.571Z,99.99
2016-10-07T05:39:10.595Z,99.99
2016-10-07T05:40:10.614Z,99.99
2016-10-07T05:41:10.632Z,99.99
2016-10-07T05:42:10.960Z,99.99
2016-10-07T05:43:10.676Z,99.99
2016-10-07T05:44:25.622Z,99.99
2016-10-07T05:45:11.030Z,99.99
2016-10-07T05:46:10.747Z,99.99
2016-10-07T05:47:10.764Z,99.99
2016-10-07T05:48:10.783Z,99.99
2016-10-07T05:49:10.807Z,99.99
2016-10-07T05:50:10.829Z,99.99
2016-10-07T05:51:10.848Z,99.99
2016-10-07T05:52:10.870Z,99.99
2016-10-07T05:53:10.893Z,99.99
2016-10-07T05:54:10.914Z,99.99
2016-10-07T05:55:10.938Z,99.99
2016-10-07T05:56:10.961Z,99.99
2016-10-07T05:57:10.980Z,99.99
2016-10-07T05:58:10.998Z,99.99
2016-10-07T05:59:25.944Z,99.99
2016-10-07T06:00:11.048Z,99.99
2016-10-07T06:01:11.077Z,99.99
2016-10-07T06:02:11.085Z,99.99
2016-10-07T06:03:11.107Z,99.99
2016-10-07T06:04:11.130Z,99.99
2016-10-07T06:05:11.150Z,99.99
2016-10-07T06:06:11.170Z,99.99
2016-10-07T06:07:11.198Z,99.99
2016-10-07T06:08:11.215Z,99.99
2016-10-07T06:09:11.234Z,99.99
2016-10-07T06:11:11.279Z,99.99
2016-10-07T06:12:11.298Z,99.99
2016-10-07T06:13:11.323Z,99.99
2016-10-07T06:14:11.346Z,99.99
2016-10-07T06:15:11.370Z,99.99
2016-10-07T06:16:11.385Z,99.99
2016-10-07T06:17:11.406Z,99.99
2016-10-07T06:18:11.429Z,99.99
2016-10-07T06:19:11.451Z,99.99
2016-10-07T06:20:11.470Z,99.99
2016-10-07T06:21:11.502Z,99.99
2016-10-07T06:22:11.519Z,99.99
2016-10-07T06:23:11.540Z,99.99
2016-10-07T06:24:11.561Z,99.99
2016-10-07T06:25:11.581Z,99.99
2016-10-07T06:26:11.601Z,99.99
2016-10-07T06:28:11.648Z,99.99
2016-10-07T06:29:11.664Z,99.99
2016-10-07T06:30:11.690Z,99.99
2016-10-07T06:31:26.634Z,99.99
2016-10-07T06:32:11.735Z,99.99
2016-10-07T06:33:11.753Z,99.99
2016-10-07T06:34:11.775Z,99.99
2016-10-07T06:35:11.798Z,99.99
2016-10-07T06:36:11.824Z,99.99
2016-10-07T06:37:11.842Z,99.99
2016-10-07T06:38:11.865Z,99.99
2016-10-07T06:39:11.885Z,99.99
2016-10-07T06:40:11.909Z,99.99
2016-10-07T06:41:11.930Z,99.99
2016-10-07T06:43:11.969Z,99.99
2016-10-07T06:44:11.997Z,99.99
2016-10-07T06:45:12.013Z,99.99
2016-10-07T06:46:12.036Z,99.99
2016-10-07T06:47:26.981Z,99.99
2016-10-07T06:48:12.081Z,99.99
2016-10-07T06:49:12.099Z,99.99
2016-10-07T06:50:12.132Z,99.99
2016-10-07T06:51:12.148Z,99.99
2016-10-07T06:52:12.163Z,99.99
2016-10-07T06:53:12.239Z,99.99
2016-10-07T06:54:12.212Z,99.99
2016-10-07T06:55:12.236Z,99.99
2016-10-07T06:56:12.257Z,99.99
2016-10-07T06:57:12.278Z,99.99
2016-10-07T06:58:12.396Z,99.99
2016-10-07T06:59:12.318Z,99.99
2016-10-07T07:00:12.345Z,99.99
2016-10-07T07:01:12.365Z,99.99
2016-10-07T07:02:12.387Z,99.99
2016-10-07T07:03:27.330Z,99.99
2016-10-07T07:05:12.447Z,99.99
2016-10-07T07:06:12.472Z,99.99
2016-10-07T07:07:12.495Z,99.99
2016-10-07T07:08:12.518Z,99.99
2016-10-07T07:09:12.538Z,99.99
2016-10-07T07:10:12.563Z,99.99
2016-10-07T07:11:12.580Z,99.99
2016-10-07T07:12:12.604Z,99.99
2016-10-07T07:13:12.628Z,99.99
2016-10-07T07:14:12.649Z,99.99
2016-10-07T07:15:12.668Z,99.99
2016-10-07T07:16:12.697Z,99.99
2016-10-07T07:17:12.716Z,99.99
2016-10-07T07:18:12.737Z,99.99
2016-10-07T07:19:27.681Z,99.99
2016-10-07T07:20:12.797Z,99.99
2016-10-07T07:21:12.807Z,99.99
2016-10-07T07:22:12.824Z,99.99
2016-10-07T07:23:12.847Z,99.99
2016-10-07T07:24:12.871Z,99.99
2016-10-07T07:25:12.890Z,99.99
2016-10-07T07:26:12.917Z,99.99
2016-10-07T07:27:12.939Z,99.99
2016-10-07T07:28:12.966Z,99.99
2016-10-07T07:29:12.981Z,99.99
2016-10-07T07:30:13.008Z,99.99
2016-10-07T07:31:13.027Z,99.99
2016-10-07T07:32:13.055Z,99.99
2016-10-07T07:33:13.070Z,99.99
2016-10-07T07:34:28.019Z,99.99
2016-10-07T07:35:13.120Z,99.99
2016-10-07T07:36:13.145Z,99.99
2016-10-07T07:37:13.163Z,99.99
2016-10-07T07:38:13.187Z,99.99
2016-10-07T07:39:13.208Z,99.99
2016-10-07T07:40:13.235Z,99.99
2016-10-07T07:41:13.257Z,99.99
2016-10-07T07:42:13.276Z,99.99
2016-10-07T07:43:13.297Z,99.99
2016-10-07T07:44:13.321Z,99.99
2016-10-07T07:45:13.344Z,99.99
2016-10-07T07:46:13.371Z,99.99
2016-10-07T07:47:13.388Z,99.99
2016-10-07T07:48:13.414Z,99.99
2016-10-07T07:49:13.732Z,99.99
2016-10-07T07:50:13.460Z,99.99
2016-10-07T07:51:13.477Z,99.99
2016-10-07T07:52:13.508Z,99.95
2016-10-07T07:53:13.523Z,99.08
2016-10-07T07:54:13.598Z,99.52
2016-10-07T07:55:13.572Z,99.32
2016-10-07T07:56:13.594Z,98.85
2016-10-07T07:57:13.865Z,98.75
2016-10-07T07:58:13.638Z,98.18
2016-10-07T07:59:13.665Z,98.08
2016-10-07T08:00:13.686Z,97.22
2016-10-07T08:01:13.705Z,97.71
2016-10-07T08:02:13.728Z,97.71
2016-10-07T08:03:13.756Z,96.94
2016-10-07T08:04:13.773Z,95.61
2016-10-07T08:05:13.797Z,95.51
2016-10-07T08:06:28.744Z,95.98
2016-10-07T08:07:14.095Z,95.79
2016-10-07T08:08:13.864Z,96.37
2016-10-07T08:09:13.888Z,95.98
2016-10-07T08:10:14.067Z,95.98
2016-10-07T08:11:13.940Z,95.41
2016-10-07T08:12:13.964Z,95.22
2016-10-07T08:13:13.983Z,95.22
2016-10-07T08:14:14.007Z,95.03
2016-10-07T08:15:14.027Z,94.36
2016-10-07T08:16:14.048Z,94.46
2016-10-07T08:17:14.074Z,94.98
2016-10-07T08:18:14.096Z,95.32
2016-10-07T08:19:14.120Z,95.27
2016-10-07T08:20:14.147Z,95.32
2016-10-07T08:21:14.180Z,95.36
2016-10-07T08:22:29.114Z,95.79
2016-10-07T08:23:14.218Z,95.41
2016-10-07T08:24:14.240Z,95.03
2016-10-07T08:25:14.262Z,94.93
2016-10-07T08:26:14.286Z,94.56
2016-10-07T08:27:14.315Z,94.93
2016-10-07T08:28:14.330Z,95.22
2016-10-07T08:29:29.274Z,94.17
2016-10-07T08:30:14.376Z,94.46
2016-10-07T08:31:14.397Z,93.84
2016-10-07T08:32:14.422Z,93.55
2016-10-07T08:33:14.446Z,93.55
2016-10-07T08:34:14.468Z,93.84
2016-10-07T08:35:14.489Z,94.03
2016-10-07T08:36:14.512Z,93.84
2016-10-07T08:37:14.541Z,94.51
2016-10-07T08:38:29.484Z,93.46
2016-10-07T08:39:14.582Z,93.93
2016-10-07T08:40:14.609Z,94.41
2016-10-07T08:41:14.631Z,92.6
2016-10-07T08:42:14.652Z,92.31
2016-10-07T08:43:14.677Z,92.65
2016-10-07T08:44:14.702Z,92.65
2016-10-07T08:45:14.724Z,93.51
2016-10-07T08:46:14.748Z,93.98
2016-10-07T08:47:14.771Z,94.65
2016-10-07T08:48:14.790Z,93.51
2016-10-07T08:49:14.811Z,93.6
2016-10-07T08:51:14.860Z,94.56
2016-10-07T08:53:14.903Z,93.02
2016-10-07T08:54:29.853Z,94.93
2016-10-07T08:55:14.954Z,94.17
2016-10-07T08:56:14.976Z,94.56
2016-10-07T08:57:14.998Z,93.98
2016-10-07T08:58:15.035Z,94.36
2016-10-07T08:59:15.050Z,94.17
2016-10-07T09:00:15.072Z,94.36
2016-10-07T09:01:15.093Z,94.36
2016-10-07T09:02:15.167Z,94.46
2016-10-07T09:03:15.142Z,93.22
2016-10-07T09:04:15.163Z,93.6
2016-10-07T09:05:15.185Z,94.27
2016-10-07T09:06:15.209Z,94.17
2016-10-07T09:07:15.232Z,94.84
2016-10-07T09:08:15.255Z,94.17
2016-10-07T09:09:30.201Z,91.12
2016-10-07T09:10:15.303Z,91.78
2016-10-07T09:11:15.325Z,92.46
2016-10-07T09:12:15.350Z,92.46
2016-10-07T09:13:15.373Z,91.31
2016-10-07T09:14:15.392Z,92.21
2016-10-07T09:15:15.418Z,92.21
2016-10-07T09:16:15.439Z,91.45
2016-10-07T09:17:15.465Z,90.69
2016-10-07T09:18:15.481Z,90.97
2016-10-07T09:19:15.506Z,91.83
2016-10-07T09:20:15.532Z,91.64
2016-10-07T09:21:15.553Z,91.55
2016-10-07T09:22:15.824Z,91.93
2016-10-07T09:24:15.621Z,90.69
2016-10-07T09:25:15.646Z,90.69
2016-10-07T09:26:15.668Z,89.83
2016-10-07T09:27:15.697Z,90.69
2016-10-07T09:28:15.716Z,89.92
2016-10-07T09:29:15.736Z,89.64
2016-10-07T09:30:15.764Z,89.83
2016-10-07T09:31:15.787Z,90.59
2016-10-07T09:32:15.808Z,90.69
2016-10-07T09:33:15.832Z,90.31
2016-10-07T09:34:16.160Z,90.21
2016-10-07T09:35:15.882Z,88.3
2016-10-07T09:36:15.909Z,87.35
2016-10-07T09:38:15.950Z,86.39
2016-10-07T09:39:16.018Z,87.82
2016-10-07T09:40:15.993Z,88.11
2016-10-07T09:41:30.937Z,88.01
2016-10-07T09:42:16.040Z,88.2
2016-10-07T09:43:16.064Z,87.35
2016-10-07T09:44:16.083Z,87.54
2016-10-07T09:45:16.110Z,86.01
2016-10-07T09:46:16.134Z,86.68
2016-10-07T09:47:16.157Z,85.91
2016-10-07T09:48:16.429Z,85.72
2016-10-07T09:49:16.200Z,85.72
2016-10-07T09:50:16.223Z,85.68
2016-10-07T09:51:16.244Z,86.98
2016-10-07T09:52:16.271Z,87.93
2016-10-07T09:53:16.296Z,88.88
2016-10-07T09:54:16.321Z,89.64
2016-10-07T09:55:16.340Z,91.46
2016-10-07T09:56:16.368Z,92.41
2016-10-07T09:57:31.309Z,91.74
2016-10-07T09:59:16.434Z,90.17
2016-10-07T10:00:16.461Z,89.5
2016-10-07T10:02:16.504Z,89.5
2016-10-07T10:03:16.527Z,88.64
2016-10-07T10:04:16.551Z,87.78
2016-10-07T10:05:16.579Z,86.58
2016-10-07T10:06:16.599Z,86.2
2016-10-07T10:07:16.621Z,86.68
2016-10-07T10:08:16.646Z,86.2
2016-10-07T10:09:16.667Z,86.3
2016-10-07T10:10:16.691Z,85.25
2016-10-07T10:11:16.717Z,84.96
2016-10-07T10:12:16.743Z,85.63
2016-10-07T10:13:31.684Z,85.15
2016-10-07T10:14:16.784Z,85.44
2016-10-07T10:15:16.810Z,85.82
2016-10-07T10:16:16.834Z,84.86
2016-10-07T10:17:16.855Z,84.86
2016-10-07T10:18:16.883Z,84.67
2016-10-07T10:19:16.905Z,83.34
2016-10-07T10:20:16.933Z,84.96
2016-10-07T10:21:16.954Z,85.63
2016-10-07T10:22:16.979Z,85.15
2016-10-07T10:23:16.996Z,84.67
2016-10-07T10:24:17.021Z,84.33
2016-10-07T10:25:17.047Z,83.28
2016-10-07T10:26:17.076Z,83.76
2016-10-07T10:27:17.098Z,83.76
2016-10-07T10:28:17.114Z,83.67
2016-10-07T10:29:32.063Z,83.95
2016-10-07T10:30:17.165Z,83.62
2016-10-07T10:31:17.189Z,83.91
2016-10-07T10:32:17.209Z,84.67
2016-10-07T10:33:17.232Z,84.77
2016-10-07T10:34:17.258Z,83.62
2016-10-07T10:35:17.279Z,84.39
2016-10-07T10:36:17.305Z,84.44
2016-10-07T10:37:17.330Z,84.53
2016-10-07T10:38:17.351Z,84.63
2016-10-07T10:39:17.374Z,85.25
2016-10-07T10:40:17.399Z,84
2016-10-07T10:41:17.427Z,84.86
2016-10-07T10:43:17.470Z,84.05
2016-10-07T10:44:32.416Z,83.28
2016-10-07T10:45:17.517Z,82.71
2016-10-07T10:46:17.543Z,82.81
2016-10-07T10:47:17.566Z,83.86
2016-10-07T10:48:17.590Z,83.95
2016-10-07T10:49:17.612Z,83.95
2016-10-07T10:50:17.639Z,83.76
2016-10-07T10:51:17.657Z,83.95
2016-10-07T10:52:17.686Z,83.8
2016-10-07T10:53:17.704Z,81.99
2016-10-07T10:54:17.733Z,82.46
2016-10-07T10:55:17.756Z,82.56
2016-10-07T10:57:17.809Z,82.89
2016-10-07T10:58:17.824Z,81.74
2016-10-07T10:59:17.850Z,80.88
2016-10-07T11:01:17.897Z,81.93
2016-10-07T11:02:17.931Z,81.16
2016-10-07T11:03:17.947Z,81.26
2016-10-07T11:04:17.963Z,81.26
2016-10-07T11:05:17.992Z,81.16
2016-10-07T11:06:18.019Z,81.45
2016-10-07T11:07:18.039Z,81.16
2016-10-07T11:08:18.062Z,82.03
2016-10-07T11:09:18.088Z,82.41
2016-10-07T11:10:18.111Z,81.65
2016-10-07T11:11:18.386Z,81.16
2016-10-07T11:12:18.161Z,81.16
2016-10-07T11:13:18.184Z,81.16
2016-10-07T11:14:18.202Z,80.59
2016-10-07T11:15:18.232Z,80.69
2016-10-07T11:16:33.177Z,80.59
2016-10-07T11:17:18.279Z,80.88
2016-10-07T11:18:18.304Z,81.26
2016-10-07T11:19:18.327Z,80.5
2016-10-07T11:20:18.348Z,80.79
2016-10-07T11:21:18.371Z,82.03
2016-10-07T11:22:18.397Z,81.65
2016-10-07T11:23:18.420Z,80.69
2016-10-07T11:24:18.460Z,81.26
2016-10-07T11:25:18.472Z,80.79
2016-10-07T11:26:18.744Z,80.59
2016-10-07T11:27:18.513Z,80.82
2016-10-07T11:28:18.540Z,80.06
2016-10-07T11:29:18.567Z,80.59
2016-10-07T11:30:18.585Z,79.93
2016-10-07T11:31:18.662Z,79.35
2016-10-07T11:32:33.557Z,78.49
2016-10-07T11:33:18.662Z,79.79
2016-10-07T11:34:18.690Z,80.07
2016-10-07T11:35:18.710Z,80.46
2016-10-07T11:36:18.731Z,81.22
2016-10-07T11:37:18.752Z,81.41
2016-10-07T11:38:18.782Z,81.13
2016-10-07T11:39:18.806Z,79.25
2016-10-07T11:40:18.844Z,79.54
2016-10-07T11:41:18.850Z,80.5
2016-10-07T11:42:18.873Z,78.11
2016-10-07T11:43:18.897Z,79.35
2016-10-07T11:44:18.925Z,79.93
2016-10-07T11:45:18.943Z,79.87
2016-10-07T11:46:18.969Z,78.14
2016-10-07T11:48:33.943Z,78.24
2016-10-07T11:49:19.043Z,77.67
2016-10-07T11:50:19.072Z,77.57
2016-10-07T11:51:19.148Z,77.82
2016-10-07T11:52:19.115Z,77.53
2016-10-07T11:53:19.139Z,78.3
2016-10-07T11:54:19.167Z,78.58
2016-10-07T11:55:19.440Z,79.44
2016-10-07T11:56:19.216Z,80.46
2016-10-07T11:57:19.256Z,79.41
2016-10-07T11:58:19.262Z,79.69
2016-10-07T11:59:19.287Z,79.41
2016-10-07T12:00:19.311Z,79.41
2016-10-07T12:01:19.331Z,80.07
2016-10-07T12:02:19.364Z,79.5
2016-10-07T12:03:19.379Z,78.3
2016-10-07T12:04:34.328Z,79.22
2016-10-07T12:05:19.428Z,79.88
2016-10-07T12:06:19.450Z,79.02
2016-10-07T12:07:19.478Z,78.45
2016-10-07T12:08:19.500Z,77.92
2016-10-07T12:09:19.831Z,78.01
2016-10-07T12:10:19.550Z,78.11
2016-10-07T12:11:19.571Z,77.53
2016-10-07T12:12:19.596Z,77.53
2016-10-07T12:13:19.622Z,78.2
2016-10-07T12:14:19.643Z,77.82
2016-10-07T12:16:19.701Z,77.67
2016-10-07T12:17:19.713Z,76.71
2016-10-07T12:18:19.743Z,76.42
2016-10-07T12:19:34.687Z,76.33
2016-10-07T12:20:19.794Z,76.71
2016-10-07T12:21:19.811Z,75.95
2016-10-07T12:22:19.837Z,75.14
2016-10-07T12:23:19.859Z,75.52
2016-10-07T12:24:19.883Z,76.39
2016-10-07T12:25:19.909Z,76.92
2016-10-07T12:26:20.334Z,77.4
2016-10-07T12:27:19.955Z,78.26
2016-10-07T12:28:19.978Z,77.4
2016-10-07T12:29:20.004Z,78.16
2016-10-07T12:31:20.054Z,77.59
2016-10-07T12:32:20.078Z,78.45
2016-10-07T12:33:20.101Z,78.45
2016-10-07T12:34:20.126Z,78.41
2016-10-07T12:35:20.152Z,78.64
2016-10-07T12:36:20.172Z,79.17
2016-10-07T12:37:20.201Z,79.85
2016-10-07T12:38:20.220Z,81.09
2016-10-07T12:39:20.250Z,80.7
2016-10-07T12:40:20.273Z,80.7
2016-10-07T12:41:20.296Z,80.9
2016-10-07T12:42:20.318Z,80.99
2016-10-07T12:43:20.589Z,80.9
2016-10-07T12:44:20.369Z,80.99
2016-10-07T12:45:20.389Z,80.7
2016-10-07T12:46:20.410Z,80.8
2016-10-07T12:47:20.435Z,80.99
2016-10-07T12:48:20.468Z,81.37
2016-10-07T12:49:20.488Z,81.27
2016-10-07T12:50:20.508Z,80.07
2016-10-07T12:51:35.554Z,80.13
2016-10-07T12:52:20.556Z,80.04
2016-10-07T12:53:20.884Z,80.61
2016-10-07T12:54:20.607Z,80.46
2016-10-07T12:55:20.629Z,79.98
2016-10-07T12:56:20.651Z,80.55
2016-10-07T12:57:20.678Z,80.99
2016-10-07T12:58:20.698Z,80.84
2016-10-07T12:59:20.725Z,80.65
2016-10-07T13:00:20.745Z,80.17
2016-10-07T13:01:20.771Z,80.07
2016-10-07T13:02:20.796Z,79.98
2016-10-07T13:04:20.842Z,79.93
2016-10-07T13:05:20.865Z,79.73
2016-10-07T13:07:35.838Z,78.3
2016-10-07T13:08:20.935Z,77.92
2016-10-07T13:09:20.964Z,78.2
2016-10-07T13:10:20.985Z,77.63
2016-10-07T13:11:21.011Z,77.72
2016-10-07T13:12:21.030Z,78.2
2016-10-07T13:13:21.056Z,78.2
2016-10-07T13:14:21.082Z,78.49
2016-10-07T13:15:21.104Z,78.87
2016-10-07T13:16:21.133Z,77.82
2016-10-07T13:17:21.155Z,78.49
2016-10-07T13:18:21.178Z,77.72
2016-10-07T13:19:21.200Z,77.53
2016-10-07T13:20:21.229Z,78.68
2016-10-07T13:21:21.252Z,78.68
2016-10-07T13:22:21.271Z,79.35
2016-10-07T13:23:36.219Z,78.68
2016-10-07T13:24:21.326Z,78.39
2016-10-07T13:25:21.596Z,77.19
2016-10-07T13:26:21.368Z,76.52
2016-10-07T13:27:21.391Z,76.67
2016-10-07T13:28:21.420Z,76.77
2016-10-07T13:29:21.445Z,77.21
2016-10-07T13:30:21.468Z,77.87
2016-10-07T13:31:21.493Z,78.6
2016-10-07T13:33:21.540Z,78.16
2016-10-07T13:34:21.563Z,77.78